Time;durP1;ratioP1;P1;durP2;ratioP2;P2;SDS_P1;SDS_P2;PMS_P1;PMS_P2;Temp;Humidity;BMP_temperature;BMP_pressure;BME280_temperature;BME280_humidity;BME280_pressure;Samples;Min_cycle;Max_cycle;Signal;HPM_P1;HPM_P2
2022/08/16 00:05:45;;;;;;;19.53;14.10;;;;;;;;;;5063687;28;20213;-81
2022/08/16 00:08:16;;;;;;;19.13;13.80;;;;;;;;;;5075781;28;20200;-82
2022/08/16 00:11:04;;;;;;;21.00;16.67;;;;;;;;;;5073673;28;20205;-82
2022/08/16 00:13:34;;;;;;;20.00;14.43;;;;;;;;;;5089173;28;20284;-82
2022/08/16 00:16:10;;;;;;;15.50;11.33;;;;;;;;;;5072760;28;20233;-82
2022/08/16 00:18:58;;;;;;;10.80;9.50;;;;;;;;;;5056099;28;20204;-82
2022/08/16 00:21:27;;;;;;;10.07;8.37;;;;;;;;;;5069062;28;20195;-81
2022/08/16 00:23:56;;;;;;;8.73;6.50;;;;;;;;;;5070115;28;20210;-82
2022/08/16 00:26:25;;;;;;;10.20;8.10;;;;;;;;;;5072754;28;20204;-82
2022/08/16 00:29:07;;;;;;;5.37;4.80;;;;;;;;;;5090318;28;20228;-81
2022/08/16 00:31:38;;;;;;;21.47;14.73;;;;;;;;;;5064968;28;20299;-81
2022/08/16 00:34:26;;;;;;;22.90;16.67;;;;;;;;;;5064347;28;20210;-82
2022/08/16 00:37:12;;;;;;;18.87;12.83;;;;;;;;;;5075521;28;20251;-82
2022/08/16 00:39:45;;;;;;;23.30;19.83;;;;;;;;;;5093312;28;20260;-81
2022/08/16 00:42:14;;;;;;;31.10;22.43;;;;;;;;;;5072184;28;20237;-82
2022/08/16 00:45:02;;;;;;;33.33;24.17;;;;;;;;;;5062023;28;20345;-82
2022/08/16 00:47:36;;;;;;;25.33;20.93;;;;;;;;;;5061797;28;20191;-82
2022/08/16 00:50:05;;;;;;;31.43;23.27;;;;;;;;;;5068902;28;20202;-81
2022/08/16 00:52:39;;;;;;;26.90;18.57;;;;;;;;;;5072487;28;20203;-82
2022/08/16 00:55:18;;;;;;;24.50;20.93;;;;;;;;;;5073612;28;20208;-82
2022/08/16 00:57:47;;;;;;;27.60;21.07;;;;;;;;;;5055508;28;20208;-82
2022/08/16 01:00:31;;;;;;;3.80;3.43;;;;;;;;;;5075541;28;20233;-81
2022/08/16 01:03:03;;;;;;;32.57;27.07;;;;;;;;;;5059159;28;20209;-82
2022/08/16 01:05:32;;;;;;;26.47;23.43;;;;;;;;;;5075785;28;20300;-81
2022/08/16 01:08:01;;;;;;;34.67;29.17;;;;;;;;;;5074067;28;20196;-82
2022/08/16 01:10:51;;;;;;;21.40;13.60;;;;;;;;;;5074994;28;20231;-82
2022/08/16 01:13:21;;;;;;;26.37;19.37;;;;;;;;;;5060898;28;20294;-81
2022/08/16 01:16:00;;;;;;;30.53;24.10;;;;;;;;;;5064510;28;20285;-81
2022/08/16 01:18:32;;;;;;;33.57;26.90;;;;;;;;;;5083334;28;20219;-81
2022/08/16 01:21:14;;;;;;;25.40;20.30;;;;;;;;;;5070918;28;20215;-81
2022/08/16 01:24:10;;;;;;;32.13;23.60;;;;;;;;;;5068252;28;20198;-82
2022/08/16 01:27:01;;;;;;;22.07;18.10;;;;;;;;;;5063062;28;20262;-82
2022/08/16 01:29:34;;;;;;;26.23;19.60;;;;;;;;;;5089180;28;20193;-82
2022/08/16 01:32:22;;;;;;;21.80;17.03;;;;;;;;;;5080814;28;20204;-81
2022/08/16 01:35:02;;;;;;;7.90;7.17;;;;;;;;;;5069979;28;20248;-82
2022/08/16 01:37:37;;;;;;;15.47;4.00;;;;;;;;;;5076300;28;20203;-82
2022/08/16 01:40:06;;;;;;;25.60;20.53;;;;;;;;;;5078692;28;20255;-82
2022/08/16 01:42:36;;;;;;;32.23;24.93;;;;;;;;;;5075820;28;20230;-82
2022/08/16 01:45:09;;;;;;;31.53;24.67;;;;;;;;;;5075571;28;20219;-82
2022/08/16 01:47:39;;;;;;;29.23;25.33;;;;;;;;;;5063670;28;20204;-82
2022/08/16 01:50:18;;;;;;;28.57;23.80;;;;;;;;;;5059555;28;20300;-81
2022/08/16 01:53:07;;;;;;;29.20;23.63;;;;;;;;;;5079026;28;20204;-81
2022/08/16 01:55:39;;;;;;;11.67;8.33;;;;;;;;;;5084317;28;20223;-81
2022/08/16 01:58:09;;;;;;;26.90;19.93;;;;;;;;;;5058582;28;20199;-81
2022/08/16 02:00:40;;;;;;;30.30;22.07;;;;;;;;;;5071215;28;20201;-82
2022/08/16 02:03:10;;;;;;;28.67;22.37;;;;;;;;;;5079079;28;20299;-82
2022/08/16 02:05:40;;;;;;;22.47;19.37;;;;;;;;;;5075603;28;20331;-82
2022/08/16 02:08:19;;;;;;;28.50;24.20;;;;;;;;;;5059115;28;20239;-82
2022/08/16 02:11:03;;;;;;;23.83;21.27;;;;;;;;;;5072347;28;20199;-82
2022/08/16 02:13:33;;;;;;;30.33;24.00;;;;;;;;;;5072032;28;20203;-81
2022/08/16 02:16:01;;;;;;;32.40;28.23;;;;;;;;;;5095146;28;20213;-81
2022/08/16 02:18:29;;;;;;;30.27;24.17;;;;;;;;;;5074525;28;20210;-81
2022/08/16 02:21:02;;;;;;;32.03;28.63;;;;;;;;;;5077441;28;20199;-81
2022/08/16 02:23:31;;;;;;;35.53;30.03;;;;;;;;;;5075038;28;20239;-81
2022/08/16 02:26:00;;;;;;;29.83;25.30;;;;;;;;;;5095022;28;20212;-82
2022/08/16 02:28:29;;;;;;;26.37;23.50;;;;;;;;;;5096375;28;20198;-82
2022/08/16 02:31:00;;;;;;;30.50;24.07;;;;;;;;;;5077708;28;20206;-82
2022/08/16 02:33:29;;;;;;;33.17;26.87;;;;;;;;;;5074673;28;20214;-81
2022/08/16 02:36:13;;;;;;;30.67;25.50;;;;;;;;;;5088121;28;20224;-82
2022/08/16 02:39:01;;;;;;;32.67;25.47;;;;;;;;;;5075041;28;20270;-81
2022/08/16 02:41:30;;;;;;;28.33;23.33;;;;;;;;;;5090440;28;20205;-82
2022/08/16 02:44:01;;;;;;;32.37;25.07;;;;;;;;;;5074610;28;20350;-82
2022/08/16 02:46:31;;;;;;;32.93;27.60;;;;;;;;;;5093054;28;20212;-82
2022/08/16 02:49:01;;;;;;;25.17;19.53;;;;;;;;;;5078243;28;20295;-82
2022/08/16 02:51:29;;;;;;;40.07;27.37;;;;;;;;;;5091525;28;20186;-82
2022/08/16 02:53:58;;;;;;;24.80;19.20;;;;;;;;;;5093317;28;20207;-82
2022/08/16 02:56:28;;;;;;;31.00;22.00;;;;;;;;;;5095005;28;20224;-82
2022/08/16 02:58:59;;;;;;;33.37;25.33;;;;;;;;;;5084450;28;20194;-82
2022/08/16 03:01:30;;;;;;;33.03;23.50;;;;;;;;;;5094130;28;20202;-82
2022/08/16 03:04:06;;;;;;;24.60;17.03;;;;;;;;;;5077983;28;20198;-81
2022/08/16 03:06:55;;;;;;;27.70;17.87;;;;;;;;;;5095085;28;20243;-82
2022/08/16 03:09:25;;;;;;;29.80;22.33;;;;;;;;;;5061469;28;20208;-81
2022/08/16 03:11:59;;;;;;;36.70;22.90;;;;;;;;;;5064088;28;20219;-81
2022/08/16 03:14:29;;;;;;;32.40;19.80;;;;;;;;;;5077152;28;20200;-80
2022/08/16 03:16:58;;;;;;;25.47;19.93;;;;;;;;;;5074679;28;20197;-81
2022/08/16 03:19:31;;;;;;;31.67;24.23;;;;;;;;;;5080554;28;20203;-81
2022/08/16 03:22:21;;;;;;;28.10;22.37;;;;;;;;;;5093293;28;20235;-81
2022/08/16 03:24:57;;;;;;;17.10;12.83;;;;;;;;;;5092906;28;20256;-80
2022/08/16 03:27:26;;;;;;;28.83;20.30;;;;;;;;;;5071191;28;20235;-81
2022/08/16 03:30:01;;;;;;;36.80;24.50;;;;;;;;;;5074326;28;20203;-81
2022/08/16 03:32:45;;;;;;;38.93;25.73;;;;;;;;;;5091522;28;20197;-81
2022/08/16 03:35:17;;;;;;;38.67;26.37;;;;;;;;;;5060801;28;20227;-81
2022/08/16 03:37:46;;;;;;;37.57;31.40;;;;;;;;;;5066417;28;20203;-81
2022/08/16 03:40:32;;;;;;;36.33;28.20;;;;;;;;;;5061770;28;20198;-81
2022/08/16 03:43:02;;;;;;;43.50;32.33;;;;;;;;;;5059556;28;20227;-81
2022/08/16 03:45:48;;;;;;;37.97;29.53;;;;;;;;;;5077024;28;20204;-81
2022/08/16 03:48:21;;;;;;;15.47;13.87;;;;;;;;;;5088025;28;20202;-81
2022/08/16 03:51:09;;;;;;;37.77;26.90;;;;;;;;;;5074624;28;20208;-81
2022/08/16 03:53:40;;;;;;;43.90;34.70;;;;;;;;;;5090677;28;20210;-81
2022/08/16 03:56:09;;;;;;;37.27;29.43;;;;;;;;;;5076686;28;20201;-81
2022/08/16 03:58:49;;;;;;;16.83;11.07;;;;;;;;;;5063964;28;20207;-81
2022/08/16 04:01:20;;;;;;;28.03;22.33;;;;;;;;;;5060748;28;20205;-81
2022/08/16 04:03:50;;;;;;;31.23;21.53;;;;;;;;;;5090625;28;20275;-82
2022/08/16 04:06:21;;;;;;;30.43;21.00;;;;;;;;;;5057547;28;20215;-82
2022/08/16 04:08:50;;;;;;;38.87;24.87;;;;;;;;;;5088088;28;20258;-82
2022/08/16 04:11:18;;;;;;;41.13;30.27;;;;;;;;;;5076424;28;20253;-82
2022/08/16 04:13:51;;;;;;;41.00;30.13;;;;;;;;;;5080804;28;20198;-82
2022/08/16 04:16:36;;;;;;;46.50;39.83;;;;;;;;;;5064770;28;20286;-82
2022/08/16 04:19:04;;;;;;;48.70;39.10;;;;;;;;;;5074759;28;20199;-81
2022/08/16 04:21:34;;;;;;;44.60;36.90;;;;;;;;;;5086401;28;20232;-81
2022/08/16 04:24:14;;;;;;;40.33;32.70;;;;;;;;;;5074996;28;20200;-81
2022/08/16 04:26:43;;;;;;;39.10;26.80;;;;;;;;;;5075576;28;20211;-81
2022/08/16 04:29:14;;;;;;;27.27;18.53;;;;;;;;;;5094227;28;20205;-82
2022/08/16 04:31:52;;;;;;;42.90;31.83;;;;;;;;;;5092941;28;20194;-81
2022/08/16 04:34:26;;;;;;;40.77;29.97;;;;;;;;;;5075759;28;20208;-81
2022/08/16 04:36:57;;;;;;;39.83;32.53;;;;;;;;;;5072804;28;20196;-82
2022/08/16 04:39:29;;;;;;;31.03;21.27;;;;;;;;;;5061570;28;20208;-82
2022/08/16 04:42:14;;;;;;;21.57;18.23;;;;;;;;;;5061694;28;20333;-82
2022/08/16 04:44:43;;;;;;;42.87;31.40;;;;;;;;;;5078628;28;20208;-81
2022/08/16 04:47:23;;;;;;;33.23;23.43;;;;;;;;;;5093471;28;20223;-82
2022/08/16 04:49:51;;;;;;;35.87;25.80;;;;;;;;;;5072553;28;20197;-82
2022/08/16 04:52:21;;;;;;;40.37;30.83;;;;;;;;;;5086299;28;20196;-81
2022/08/16 04:55:03;;;;;;;44.03;36.77;;;;;;;;;;5068199;28;20251;-81
2022/08/16 04:57:32;;;;;;;45.47;33.90;;;;;;;;;;5068685;28;20207;-81
2022/08/16 05:00:00;;;;;;;37.73;27.50;;;;;;;;;;5075794;28;20193;-82
2022/08/16 05:02:50;;;;;;;41.90;31.93;;;;;;;;;;5061651;28;20196;-82
2022/08/16 05:05:23;;;;;;;42.57;30.87;;;;;;;;;;5062989;28;20200;-82
2022/08/16 05:07:59;;;;;;;40.63;29.70;;;;;;;;;;5055786;28;20223;-82
2022/08/16 05:10:28;;;;;;;41.87;32.60;;;;;;;;;;5069328;28;20208;-82
2022/08/16 05:12:57;;;;;;;27.83;20.47;;;;;;;;;;5067086;28;20210;-82
2022/08/16 05:15:25;;;;;;;40.93;31.87;;;;;;;;;;5069373;28;20209;-82
2022/08/16 05:17:55;;;;;;;20.70;15.43;;;;;;;;;;5093521;28;20190;-82
2022/08/16 05:20:27;;;;;;;37.63;23.97;;;;;;;;;;5059187;28;20219;-81
2022/08/16 05:23:17;;;;;;;40.60;31.73;;;;;;;;;;5062762;28;20275;-82
2022/08/16 05:25:48;;;;;;;44.60;34.00;;;;;;;;;;5073557;28;20215;-81
2022/08/16 05:28:17;;;;;;;42.77;34.23;;;;;;;;;;5093554;28;20206;-81
2022/08/16 05:30:45;;;;;;;38.27;28.97;;;;;;;;;;5073854;28;20240;-82
2022/08/16 05:33:17;;;;;;;35.67;27.23;;;;;;;;;;5089246;28;20235;-82
2022/08/16 05:35:47;;;;;;;39.73;29.43;;;;;;;;;;5073787;28;20221;-82
2022/08/16 05:38:26;;;;;;;29.10;22.87;;;;;;;;;;5058690;28;20192;-82
2022/08/16 05:41:06;;;;;;;34.93;26.80;;;;;;;;;;5056218;28;20209;-82
2022/08/16 05:43:36;;;;;;;34.93;24.33;;;;;;;;;;5080761;28;20251;-82
2022/08/16 05:46:16;;;;;;;5.77;4.70;;;;;;;;;;5075005;28;20207;-82
2022/08/16 05:48:58;;;;;;;4.27;4.00;;;;;;;;;;5073645;28;20205;-82
2022/08/16 05:51:36;;;;;;;7.53;5.30;;;;;;;;;;5075559;28;20214;-82
2022/08/16 05:54:09;;;;;;;17.43;9.80;;;;;;;;;;5073515;28;20221;-82
2022/08/16 05:56:41;;;;;;;20.33;15.13;;;;;;;;;;5076252;28;20212;-82
2022/08/16 05:59:10;;;;;;;28.00;23.80;;;;;;;;;;5059926;28;20260;-83
2022/08/16 06:01:40;;;;;;;41.77;27.67;;;;;;;;;;5074827;28;20211;-83
2022/08/16 06:04:09;;;;;;;29.97;25.43;;;;;;;;;;5073729;28;20204;-82
2022/08/16 06:06:57;;;;;;;27.67;20.70;;;;;;;;;;5092579;28;20216;-83
2022/08/16 06:09:30;;;;;;;35.73;30.07;;;;;;;;;;5079638;28;20207;-83
2022/08/16 06:12:12;;;;;;;40.80;32.23;;;;;;;;;;5059165;28;20216;-83
2022/08/16 06:14:57;;;;;;;25.67;16.67;;;;;;;;;;5071240;28;20199;-83
2022/08/16 06:17:26;;;;;;;24.50;17.80;;;;;;;;;;5086032;28;20201;-83
2022/08/16 06:20:13;;;;;;;15.47;10.63;;;;;;;;;;5088871;28;20226;-82
2022/08/16 06:22:44;;;;;;;26.17;21.13;;;;;;;;;;5095320;28;20197;-83
2022/08/16 06:25:16;;;;;;;26.37;17.43;;;;;;;;;;5061769;28;20194;-83
2022/08/16 06:28:02;;;;;;;21.73;15.63;;;;;;;;;;5088470;28;20214;-83
2022/08/16 06:30:36;;;;;;;28.27;19.80;;;;;;;;;;5081838;28;20200;-83
2022/08/16 06:33:12;;;;;;;28.90;19.13;;;;;;;;;;5069732;28;20207;-83
2022/08/16 06:35:49;;;;;;;28.50;20.70;;;;;;;;;;5091724;28;20230;-82
2022/08/16 06:38:22;;;;;;;26.70;16.27;;;;;;;;;;5074557;28;20199;-83
2022/08/16 06:41:04;;;;;;;17.00;6.67;;;;;;;;;;5078135;28;20191;-83
2022/08/16 06:43:33;;;;;;;21.93;16.37;;;;;;;;;;5082822;28;20248;-83
2022/08/16 06:46:01;;;;;;;31.40;23.73;;;;;;;;;;5075156;28;20206;-84
2022/08/16 06:48:31;;;;;;;4.33;3.93;;;;;;;;;;5095854;28;20268;-83
2022/08/16 06:51:02;;;;;;;12.67;11.13;;;;;;;;;;5076929;28;20201;-82
2022/08/16 06:53:33;;;;;;;20.87;16.07;;;;;;;;;;5066232;28;20213;-83
2022/08/16 06:56:06;;;;;;;21.63;10.03;;;;;;;;;;5064587;28;20215;-83
2022/08/16 06:58:46;;;;;;;8.30;7.37;;;;;;;;;;5096008;28;20204;-83
2022/08/16 07:01:16;;;;;;;7.73;6.47;;;;;;;;;;5094926;28;20288;-83
2022/08/16 07:03:52;;;;;;;10.73;9.27;;;;;;;;;;5083124;28;20242;-83
2022/08/16 07:06:24;;;;;;;8.07;6.77;;;;;;;;;;5095478;28;20322;-83
2022/08/16 07:08:54;;;;;;;6.07;5.30;;;;;;;;;;5079939;28;20212;-83
2022/08/16 07:11:26;;;;;;;24.80;16.73;;;;;;;;;;5067180;28;20206;-82
2022/08/16 07:14:14;;;;;;;17.00;12.37;;;;;;;;;;5093217;28;20277;-82
2022/08/16 07:16:56;;;;;;;6.30;5.60;;;;;;;;;;5075244;28;20200;-82
2022/08/16 07:19:31;;;;;;;11.00;7.73;;;;;;;;;;5074305;28;20274;-82
2022/08/16 07:22:19;;;;;;;12.90;8.53;;;;;;;;;;5087797;28;20203;-81
2022/08/16 07:25:09;;;;;;;5.40;4.87;;;;;;;;;;5059036;28;20206;-81
2022/08/16 07:27:40;;;;;;;22.67;17.93;;;;;;;;;;5083640;28;20217;-81
2022/08/16 07:30:11;;;;;;;19.73;12.90;;;;;;;;;;5077148;28;20210;-81
2022/08/16 07:33:01;;;;;;;13.80;10.80;;;;;;;;;;5072805;28;20224;-79
2022/08/16 07:35:29;;;;;;;15.67;12.27;;;;;;;;;;5070177;28;20310;-79
2022/08/16 07:37:59;;;;;;;18.53;12.10;;;;;;;;;;5074662;28;20208;-80
2022/08/16 07:40:28;;;;;;;6.77;6.17;;;;;;;;;;5079530;28;20208;-80
2022/08/16 07:43:18;;;;;;;4.63;3.53;;;;;;;;;;5061258;28;20236;-80
2022/08/16 07:45:48;;;;;;;8.30;6.87;;;;;;;;;;5059566;28;20256;-79
2022/08/16 07:48:20;;;;;;;15.93;13.23;;;;;;;;;;5058977;28;20230;-81
2022/08/16 07:50:51;;;;;;;2.03;1.80;;;;;;;;;;5064247;28;20213;-81
2022/08/16 07:53:25;;;;;;;4.20;2.77;;;;;;;;;;5089186;28;20250;-80
2022/08/16 07:55:56;;;;;;;8.70;7.63;;;;;;;;;;5095750;28;20261;-81
2022/08/16 07:58:27;;;;;;;2.70;2.50;;;;;;;;;;5060195;28;20196;-80
2022/08/16 08:01:04;;;;;;;22.23;16.33;;;;;;;;;;5076040;28;20201;-80
2022/08/16 08:03:40;;;;;;;11.33;7.00;;;;;;;;;;5075464;28;20295;-81
2022/08/16 08:06:16;;;;;;;15.23;10.80;;;;;;;;;;5073154;28;20197;-81
2022/08/16 08:08:45;;;;;;;20.47;10.83;;;;;;;;;;5089702;28;20222;-81
2022/08/16 08:11:19;;;;;;;32.63;17.73;;;;;;;;;;5080421;28;20229;-81
2022/08/16 08:13:50;;;;;;;9.67;7.97;;;;;;;;;;5073767;28;20204;-81
2022/08/16 08:16:21;;;;;;;16.43;7.40;;;;;;;;;;5078258;28;20217;-81
2022/08/16 08:18:58;;;;;;;7.07;6.27;;;;;;;;;;5067711;28;20274;-81
2022/08/16 08:21:30;;;;;;;20.53;12.20;;;;;;;;;;5095975;28;20203;-81
2022/08/16 08:24:19;;;;;;;4.77;3.83;;;;;;;;;;5063358;28;20205;-81
2022/08/16 08:26:47;;;;;;;9.23;7.80;;;;;;;;;;5073166;28;20216;-80
2022/08/16 08:29:20;;;;;;;7.07;5.60;;;;;;;;;;5074300;28;20298;-81
2022/08/16 08:32:04;;;;;;;16.13;8.97;;;;;;;;;;5072725;28;20215;-80
2022/08/16 08:34:53;;;;;;;4.90;3.97;;;;;;;;;;5071533;28;20282;-81
2022/08/16 08:37:27;;;;;;;6.73;6.03;;;;;;;;;;5075772;28;20204;-81
2022/08/16 08:40:17;;;;;;;7.13;6.47;;;;;;;;;;5064417;28;20291;-80
2022/08/16 08:42:46;;;;;;;4.07;2.80;;;;;;;;;;5094126;28;20240;-80
2022/08/16 08:45:18;;;;;;;7.90;5.20;;;;;;;;;;5068719;28;20246;-80
2022/08/16 08:48:07;;;;;;;9.73;6.43;;;;;;;;;;5088496;28;20207;-80
2022/08/16 08:50:55;;;;;;;11.77;7.03;;;;;;;;;;5068573;28;20208;-80
2022/08/16 08:53:25;;;;;;;21.63;16.33;;;;;;;;;;5077396;28;20202;-79
2022/08/16 08:55:58;;;;;;;6.00;5.50;;;;;;;;;;5088929;28;20211;-79
2022/08/16 08:58:27;;;;;;;21.63;17.67;;;;;;;;;;5085727;28;20196;-79
2022/08/16 09:01:05;;;;;;;6.47;5.37;;;;;;;;;;5073585;28;20236;-80
2022/08/16 09:03:37;;;;;;;14.57;7.60;;;;;;;;;;5073545;28;20259;-80
2022/08/16 09:06:07;;;;;;;5.20;4.80;;;;;;;;;;5090554;28;20201;-79
2022/08/16 09:08:36;;;;;;;4.87;4.40;;;;;;;;;;5076199;28;20217;-79
2022/08/16 09:11:05;;;;;;;4.30;4.00;;;;;;;;;;5076461;28;20204;-79
2022/08/16 09:13:37;;;;;;;2.10;1.90;;;;;;;;;;5075074;28;20196;-79
2022/08/16 09:16:16;;;;;;;4.27;3.27;;;;;;;;;;5075455;28;20288;-79
2022/08/16 09:19:05;;;;;;;5.83;5.30;;;;;;;;;;5087289;28;20225;-78
2022/08/16 09:21:34;;;;;;;7.93;6.50;;;;;;;;;;5073229;28;20293;-79
2022/08/16 09:24:03;;;;;;;7.80;4.47;;;;;;;;;;5073996;28;20260;-79
2022/08/16 09:26:39;;;;;;;11.97;9.33;;;;;;;;;;5072258;28;20237;-79
2022/08/16 09:29:13;;;;;;;6.73;4.90;;;;;;;;;;5092841;28;20213;-79
2022/08/16 09:31:55;;;;;;;10.13;7.73;;;;;;;;;;5074102;28;20209;-79
2022/08/16 09:34:24;;;;;;;12.80;11.40;;;;;;;;;;5067013;28;20212;-79
2022/08/16 09:36:56;;;;;;;7.47;5.27;;;;;;;;;;5075232;28;20228;-79
2022/08/16 09:39:27;;;;;;;13.60;4.40;;;;;;;;;;5075190;28;20200;-79
2022/08/16 09:42:09;;;;;;;10.50;8.63;;;;;;;;;;5055123;28;20206;-79
2022/08/16 09:44:37;;;;;;;5.40;4.87;;;;;;;;;;5088317;28;20204;-78
2022/08/16 09:47:27;;;;;;;7.40;5.90;;;;;;;;;;5075198;28;20204;-79
2022/08/16 09:50:16;;;;;;;6.23;5.63;;;;;;;;;;5066253;28;20218;-79
2022/08/16 09:52:50;;;;;;;9.80;8.80;;;;;;;;;;5056212;28;20194;-79
2022/08/16 09:55:19;;;;;;;16.47;9.97;;;;;;;;;;5065818;28;20303;-79
2022/08/16 09:57:52;;;;;;;7.60;6.27;;;;;;;;;;5089772;28;20237;-79
2022/08/16 10:00:20;;;;;;;6.03;5.13;;;;;;;;;;5071304;28;20201;-79
2022/08/16 10:03:10;;;;;;;5.20;4.73;;;;;;;;;;5058137;28;20300;-79
2022/08/16 10:05:39;;;;;;;3.47;3.17;;;;;;;;;;5089966;28;20219;-79
2022/08/16 10:08:07;;;;;;;12.17;10.53;;;;;;;;;;5078967;28;20208;-79
2022/08/16 10:13:52;;;;;;;2.70;2.50;;;;;;;;;;5018826;28;20223;-80
2022/08/16 10:16:22;;;;;;;6.60;3.00;;;;;;;;;;5096588;28;20204;-80
2022/08/16 10:18:52;;;;;;;5.07;4.23;;;;;;;;;;5095965;28;20211;-79
2022/08/16 10:21:34;;;;;;;6.27;5.00;;;;;;;;;;5083507;28;20238;-79
2022/08/16 10:24:04;;;;;;;4.33;3.93;;;;;;;;;;5075518;28;20208;-80
2022/08/16 10:26:34;;;;;;;5.37;4.93;;;;;;;;;;5090171;28;20194;-80
2022/08/16 10:29:22;;;;;;;4.70;3.63;;;;;;;;;;5067894;28;20228;-80
2022/08/16 10:31:50;;;;;;;5.23;3.80;;;;;;;;;;5059219;28;20190;-80
2022/08/16 10:34:22;;;;;;;8.27;4.80;;;;;;;;;;5080481;28;20285;-80
2022/08/16 10:36:59;;;;;;;7.50;5.30;;;;;;;;;;5076345;28;20210;-79
2022/08/16 10:39:30;;;;;;;6.87;4.10;;;;;;;;;;5078140;28;20225;-80
2022/08/16 10:42:09;;;;;;;6.07;5.13;;;;;;;;;;5066767;28;20214;-80
2022/08/16 10:44:41;;;;;;;3.20;2.93;;;;;;;;;;5074618;28;20227;-80
2022/08/16 10:47:13;;;;;;;6.33;5.77;;;;;;;;;;5078432;28;20219;-79
2022/08/16 10:49:45;;;;;;;13.83;9.97;;;;;;;;;;5078002;28;20204;-79
2022/08/16 10:52:14;;;;;;;5.23;4.57;;;;;;;;;;5084708;28;20310;-80
2022/08/16 10:54:46;;;;;;;13.90;9.40;;;;;;;;;;5073959;28;20200;-80
2022/08/16 10:57:34;;;;;;;8.80;7.47;;;;;;;;;;5065555;28;20298;-80
2022/08/16 11:00:08;;;;;;;4.53;4.07;;;;;;;;;;5067356;28;20196;-79
2022/08/16 11:02:51;;;;;;;6.47;3.90;;;;;;;;;;5057776;28;20196;-80
2022/08/16 11:05:31;;;;;;;12.63;7.00;;;;;;;;;;5089140;28;20199;-80
2022/08/16 11:08:20;;;;;;;4.23;3.87;;;;;;;;;;5073900;28;20207;-79
2022/08/16 11:11:04;;;;;;;6.27;5.17;;;;;;;;;;5087960;28;20216;-80
2022/08/16 11:13:47;;;;;;;5.77;4.27;;;;;;;;;;5072998;28;20228;-79
2022/08/16 11:16:35;;;;;;;9.83;7.10;;;;;;;;;;5074272;28;20281;-79
2022/08/16 11:19:24;;;;;;;9.93;6.37;;;;;;;;;;5059376;28;20204;-80
2022/08/16 11:21:56;;;;;;;7.77;6.37;;;;;;;;;;5087216;28;20286;-80
2022/08/16 11:24:45;;;;;;;8.93;6.80;;;;;;;;;;5064790;28;20248;-79
2022/08/16 11:27:33;;;;;;;16.30;10.70;;;;;;;;;;5079279;28;20224;-80
2022/08/16 11:30:05;;;;;;;3.60;3.30;;;;;;;;;;5076319;28;20248;-80
2022/08/16 11:32:39;;;;;;;7.80;6.13;;;;;;;;;;5095249;28;20199;-79
2022/08/16 11:35:10;;;;;;;9.67;6.37;;;;;;;;;;5076981;28;20313;-80
2022/08/16 11:37:45;;;;;;;6.40;5.07;;;;;;;;;;5065327;28;20203;-79
2022/08/16 11:40:37;;;;;;;10.73;8.70;;;;;;;;;;5065785;28;20230;-80
2022/08/16 11:43:07;;;;;;;3.67;3.37;;;;;;;;;;5076998;28;20227;-80
2022/08/16 11:45:38;;;;;;;16.00;5.73;;;;;;;;;;5077063;28;20199;-79
2022/08/16 11:48:10;;;;;;;7.77;7.07;;;;;;;;;;5089934;28;20205;-80
2022/08/16 11:50:38;;;;;;;2.37;1.13;;;;;;;;;;5065821;28;20208;-80
2022/08/16 11:53:09;;;;;;;7.50;4.30;;;;;;;;;;5062464;28;20207;-80
2022/08/16 11:55:38;;;;;;;8.20;6.97;;;;;;;;;;5081547;28;20207;-80
2022/08/16 11:58:11;;;;;;;14.13;9.10;;;;;;;;;;5074517;28;20209;-80
2022/08/16 12:00:43;;;;;;;9.40;5.77;;;;;;;;;;5080779;28;20281;-80
2022/08/16 12:03:19;;;;;;;9.10;6.57;;;;;;;;;;5066596;28;20225;-80
2022/08/16 12:06:06;;;;;;;15.37;6.87;;;;;;;;;;5060297;28;20220;-79
2022/08/16 12:08:41;;;;;;;7.17;5.70;;;;;;;;;;5050446;28;20227;-80
2022/08/16 12:11:11;;;;;;;7.43;5.40;;;;;;;;;;5056479;28;20232;-80
2022/08/16 12:13:39;;;;;;;7.07;5.07;;;;;;;;;;5059087;28;20204;-80
2022/08/16 12:16:09;;;;;;;3.50;3.30;;;;;;;;;;5076471;28;20221;-80
2022/08/16 12:18:38;;;;;;;3.57;3.27;;;;;;;;;;5071003;28;20205;-80
2022/08/16 12:21:07;;;;;;;5.27;4.80;;;;;;;;;;5064767;28;20198;-80
2022/08/16 12:23:37;;;;;;;8.20;4.70;;;;;;;;;;5072383;28;20209;-80
2022/08/16 12:26:07;;;;;;;13.13;11.03;;;;;;;;;;5094230;28;20204;-80
2022/08/16 12:28:38;;;;;;;10.97;9.83;;;;;;;;;;5076632;28;20204;-80
2022/08/16 12:31:24;;;;;;;7.33;6.57;;;;;;;;;;5094679;28;20251;-80
2022/08/16 12:33:53;;;;;;;5.80;4.77;;;;;;;;;;5078190;28;20246;-80
2022/08/16 12:36:26;;;;;;;11.47;8.60;;;;;;;;;;5060758;28;20233;-80
2022/08/16 12:38:57;;;;;;;11.80;10.10;;;;;;;;;;5057322;28;20209;-80
2022/08/16 12:41:27;;;;;;;10.17;8.47;;;;;;;;;;5073803;28;20226;-80
2022/08/16 12:44:02;;;;;;;11.47;8.00;;;;;;;;;;5074084;28;20722;-80
2022/08/16 12:46:31;;;;;;;3.40;3.10;;;;;;;;;;5059792;28;20218;-80
2022/08/16 12:48:59;;;;;;;5.60;4.40;;;;;;;;;;5091649;28;20203;-80
2022/08/16 12:51:31;;;;;;;8.33;6.97;;;;;;;;;;5074116;28;20221;-81
2022/08/16 12:54:20;;;;;;;46.87;7.97;;;;;;;;;;5073595;28;20203;-80
2022/08/16 12:56:50;;;;;;;11.00;9.43;;;;;;;;;;5095663;28;20200;-80
2022/08/16 12:59:20;;;;;;;10.27;8.23;;;;;;;;;;5081645;28;20204;-80
2022/08/16 13:01:51;;;;;;;7.87;6.57;;;;;;;;;;5078315;28;20197;-80
2022/08/16 13:04:27;;;;;;;12.93;7.10;;;;;;;;;;5074654;28;20295;-81
2022/08/16 13:07:01;;;;;;;19.70;16.73;;;;;;;;;;5084463;28;20195;-80
2022/08/16 13:09:31;;;;;;;20.47;17.93;;;;;;;;;;5077671;28;20217;-80
2022/08/16 13:12:18;;;;;;;22.17;16.57;;;;;;;;;;5076315;28;20309;-80
2022/08/16 13:14:48;;;;;;;13.63;8.77;;;;;;;;;;5094716;28;20203;-81
2022/08/16 13:17:19;;;;;;;5.23;4.77;;;;;;;;;;5077406;28;20296;-81
2022/08/16 13:19:49;;;;;;;10.17;7.53;;;;;;;;;;5065499;28;20207;-81
2022/08/16 13:22:38;;;;;;;9.53;6.97;;;;;;;;;;5057407;28;20200;-80
2022/08/16 13:25:08;;;;;;;7.53;6.07;;;;;;;;;;5059781;28;20302;-80
2022/08/16 13:27:38;;;;;;;9.17;8.33;;;;;;;;;;5067599;28;20247;-80
2022/08/16 13:30:28;;;;;;;15.20;11.20;;;;;;;;;;5072850;28;20204;-81
2022/08/16 13:33:08;;;;;;;17.00;10.80;;;;;;;;;;5079796;28;20196;-81
2022/08/16 13:35:40;;;;;;;8.77;7.07;;;;;;;;;;5077874;28;20248;-81
2022/08/16 13:38:11;;;;;;;8.17;6.80;;;;;;;;;;5076571;28;20223;-81
2022/08/16 13:40:52;;;;;;;6.47;5.83;;;;;;;;;;5080401;28;20204;-80
2022/08/16 13:43:46;;;;;;;10.10;8.67;;;;;;;;;;5076833;28;20240;-81
2022/08/16 13:46:25;;;;;;;15.20;12.10;;;;;;;;;;5080004;28;20199;-81
2022/08/16 13:48:54;;;;;;;13.10;9.50;;;;;;;;;;5070302;28;20209;-81
2022/08/16 13:51:23;;;;;;;13.33;8.83;;;;;;;;;;5061756;28;20243;-81
2022/08/16 13:53:52;;;;;;;9.07;7.50;;;;;;;;;;5060805;28;20201;-81
2022/08/16 13:56:27;;;;;;;8.77;6.43;;;;;;;;;;5084642;28;20210;-81
2022/08/16 13:59:07;;;;;;;9.50;8.70;;;;;;;;;;5060902;28;20197;-81
2022/08/16 14:01:48;;;;;;;15.23;11.90;;;;;;;;;;5080472;28;20240;-81
2022/08/16 14:04:24;;;;;;;18.57;16.50;;;;;;;;;;5074688;28;20209;-81
2022/08/16 14:06:54;;;;;;;18.53;14.53;;;;;;;;;;5086461;28;20204;-81
2022/08/16 14:09:24;;;;;;;30.10;26.23;;;;;;;;;;5064267;28;20211;-81
2022/08/16 14:11:54;;;;;;;11.57;9.57;;;;;;;;;;5079542;28;20223;-81
2022/08/16 14:14:24;;;;;;;9.90;8.93;;;;;;;;;;5090204;28;20202;-81
2022/08/16 14:16:56;;;;;;;11.10;8.87;;;;;;;;;;5074545;28;20204;-81
2022/08/16 14:19:25;;;;;;;23.73;11.20;;;;;;;;;;5080169;28;20205;-81
2022/08/16 14:21:57;;;;;;;9.07;8.00;;;;;;;;;;5064128;28;20220;-81
2022/08/16 14:24:46;;;;;;;22.93;20.60;;;;;;;;;;5069044;28;20197;-82
2022/08/16 14:27:16;;;;;;;17.97;8.20;;;;;;;;;;5076691;28;20213;-81
2022/08/16 14:29:46;;;;;;;11.77;4.70;;;;;;;;;;5092730;28;20211;-81
2022/08/16 14:32:17;;;;;;;5.77;4.80;;;;;;;;;;5068401;28;20264;-81
2022/08/16 14:35:01;;;;;;;7.10;6.40;;;;;;;;;;5061872;28;20219;-81
2022/08/16 14:37:30;;;;;;;15.53;10.27;;;;;;;;;;5059463;28;20216;-82
2022/08/16 14:40:00;;;;;;;5.83;5.30;;;;;;;;;;5060543;28;20202;-81
2022/08/16 14:42:30;;;;;;;9.30;8.10;;;;;;;;;;5075510;28;20245;-82
2022/08/16 14:45:00;;;;;;;20.60;16.60;;;;;;;;;;5060866;28;20260;-82
2022/08/16 14:47:29;;;;;;;6.63;6.00;;;;;;;;;;5097176;28;20219;-81
2022/08/16 14:50:02;;;;;;;10.87;8.00;;;;;;;;;;5078637;28;20202;-81
2022/08/16 14:52:33;;;;;;;12.47;9.70;;;;;;;;;;5097196;28;20241;-81
2022/08/16 14:55:22;;;;;;;12.90;10.87;;;;;;;;;;5078481;28;20197;-81
2022/08/16 14:57:50;;;;;;;11.23;10.03;;;;;;;;;;5062739;28;20289;-81
2022/08/16 15:00:24;;;;;;;21.50;13.37;;;;;;;;;;5059704;28;20197;-81
2022/08/16 15:03:02;;;;;;;11.20;9.97;;;;;;;;;;5063313;28;20196;-81
2022/08/16 15:05:32;;;;;;;7.53;6.53;;;;;;;;;;5060147;28;20295;-81
2022/08/16 15:08:02;;;;;;;4.50;2.57;;;;;;;;;;5079152;28;20204;-81
2022/08/16 15:10:31;;;;;;;14.50;6.00;;;;;;;;;;5078456;28;20199;-81
2022/08/16 15:13:00;;;;;;;7.67;3.43;;;;;;;;;;5069319;28;20213;-81
2022/08/16 15:15:30;;;;;;;10.00;8.90;;;;;;;;;;5075246;28;20261;-80
2022/08/16 15:17:59;;;;;;;3.30;2.30;;;;;;;;;;5078681;28;20287;-81
2022/08/16 15:20:31;;;;;;;8.43;6.90;;;;;;;;;;5078059;28;20197;-82